Time;durP1;ratioP1;P1;durP2;ratioP2;P2;SDS_P1;SDS_P2;PMS_P1;PMS_P2;Temp;Humidity;BMP_temperature;BMP_pressure;BME280_temperature;BME280_humidity;BME280_pressure;Samples;Min_cycle;Max_cycle;Signal;HPM_P1;HPM_P2
2023/01/04 00:00:11;;;;;;;18.13;8.67;;;5.30;99.90;;;;;;5132677;27;20190;-70
2023/01/04 00:02:41;;;;;;;16.43;8.30;;;5.30;99.90;;;;;;5130396;27;20277;-71
2023/01/04 00:05:10;;;;;;;14.67;9.10;;;5.40;99.90;;;;;;5120896;27;20257;-71
2023/01/04 00:07:39;;;;;;;16.63;8.77;;;5.40;99.90;;;;;;5112011;27;20223;-70
2023/01/04 00:10:08;;;;;;;16.00;9.20;;;5.40;99.90;;;;;;5132189;27;20205;-70
2023/01/04 00:12:37;;;;;;;22.30;9.07;;;5.40;99.90;;;;;;5132208;27;20213;-70
2023/01/04 00:15:07;;;;;;;11.50;7.77;;;5.40;99.90;;;;;;5127764;27;20304;-71
2023/01/04 00:17:36;;;;;;;18.17;8.83;;;5.40;99.90;;;;;;5152615;27;20195;-69
2023/01/04 00:20:08;;;;;;;14.83;8.23;;;5.40;99.90;;;;;;5152748;27;20247;-69
2023/01/04 00:22:37;;;;;;;13.13;8.40;;;5.40;99.90;;;;;;5151738;27;20202;-69
2023/01/04 00:25:07;;;;;;;13.97;7.63;;;5.40;99.90;;;;;;5152356;27;20248;-70
2023/01/04 00:27:35;;;;;;;12.00;8.30;;;5.40;99.90;;;;;;5152743;27;20268;-70
2023/01/04 00:30:05;;;;;;;12.67;6.93;;;5.30;99.90;;;;;;5133495;27;20201;-70
2023/01/04 00:32:34;;;;;;;13.40;6.93;;;5.30;99.90;;;;;;5152844;27;20199;-70
2023/01/04 00:35:03;;;;;;;13.67;7.37;;;5.30;99.90;;;;;;5152514;27;20194;-70
2023/01/04 00:37:33;;;;;;;13.80;7.30;;;5.30;99.90;;;;;;5152579;27;20189;-70
2023/01/04 00:40:02;;;;;;;14.57;8.20;;;5.30;99.90;;;;;;5146716;27;20596;-70
2023/01/04 00:42:31;;;;;;;12.73;6.60;;;5.30;99.90;;;;;;5121100;27;20210;-71
2023/01/04 00:45:00;;;;;;;15.27;7.40;;;5.30;99.90;;;;;;5132198;27;20695;-72
2023/01/04 00:47:29;;;;;;;10.67;6.73;;;5.20;99.90;;;;;;5132285;27;20223;-71
2023/01/04 00:49:57;;;;;;;20.00;7.50;;;5.20;99.90;;;;;;5131776;27;20622;-71
2023/01/04 00:52:26;;;;;;;10.63;7.00;;;5.10;99.90;;;;;;5131683;27;20254;-70
2023/01/04 00:54:57;;;;;;;10.03;6.13;;;5.10;99.90;;;;;;5131517;27;20352;-70
2023/01/04 00:57:26;;;;;;;9.10;6.03;;;5.10;99.90;;;;;;5131561;27;20202;-70
2023/01/04 00:59:55;;;;;;;10.37;6.30;;;5.10;99.90;;;;;;5131915;27;20202;-70
2023/01/04 01:02:23;;;;;;;11.87;6.97;;;5.00;99.90;;;;;;5131860;28;20193;-70
2023/01/04 01:04:52;;;;;;;10.07;6.60;;;5.00;99.90;;;;;;5131777;28;20731;-69
2023/01/04 01:07:21;;;;;;;11.90;6.83;;;4.90;99.90;;;;;;5140232;27;20199;-71
2023/01/04 01:09:50;;;;;;;11.03;6.30;;;4.90;99.90;;;;;;5152598;27;20245;-70
2023/01/04 01:12:20;;;;;;;11.57;6.10;;;4.90;99.90;;;;;;5152414;27;20238;-70
2023/01/04 01:14:49;;;;;;;13.73;6.50;;;4.80;99.90;;;;;;5132925;27;20284;-70
2023/01/04 01:17:21;;;;;;;9.80;5.93;;;4.90;99.90;;;;;;5131438;27;20657;-70
2023/01/04 01:19:50;;;;;;;10.90;5.90;;;4.90;99.90;;;;;;5131503;27;20226;-70
2023/01/04 01:22:18;;;;;;;11.63;6.87;;;4.80;99.90;;;;;;5131528;27;20217;-70
2023/01/04 01:24:47;;;;;;;12.03;6.77;;;4.80;99.90;;;;;;5131501;27;20702;-70
2023/01/04 01:27:16;;;;;;;12.63;7.43;;;4.80;99.90;;;;;;5131171;27;20222;-70
2023/01/04 01:29:46;;;;;;;12.40;6.20;;;4.70;99.90;;;;;;5131324;27;20199;-71
2023/01/04 01:32:15;;;;;;;11.87;6.83;;;4.70;99.90;;;;;;5131320;27;20607;-71
2023/01/04 01:34:44;;;;;;;14.17;7.70;;;4.70;99.90;;;;;;5135273;27;20252;-72
2023/01/04 01:37:13;;;;;;;11.70;6.27;;;4.70;99.90;;;;;;5126906;27;20662;-70
2023/01/04 01:39:42;;;;;;;16.43;7.43;;;4.70;99.90;;;;;;5130782;27;20540;-71
2023/01/04 01:42:19;;;;;;;12.07;7.07;;;4.60;99.90;;;;;;5115677;28;20674;-71
2023/01/04 01:45:09;;;;;;;9.70;6.77;;;4.70;99.90;;;;;;5115731;28;20600;-70
2023/01/04 01:47:42;;;;;;;11.07;6.67;;;4.70;99.90;;;;;;5115601;28;20610;-71
2023/01/04 01:50:23;;;;;;;17.10;7.37;;;4.70;99.90;;;;;;5115398;28;20203;-70
2023/01/04 01:52:53;;;;;;;9.90;6.27;;;4.70;99.90;;;;;;5115472;28;20682;-70
2023/01/04 01:55:24;;;;;;;14.97;6.70;;;4.60;99.90;;;;;;5115402;28;20193;-70
2023/01/04 01:57:55;;;;;;;10.30;7.00;;;4.60;99.90;;;;;;5115494;28;20684;-70
2023/01/04 02:00:25;;;;;;;12.73;7.70;;;4.60;99.90;;;;;;5130894;27;20655;-70
2023/01/04 02:03:02;;;;;;;14.67;7.57;;;4.60;99.90;;;;;;5137173;27;20196;-70
2023/01/04 02:05:33;;;;;;;12.00;6.80;;;4.60;99.90;;;;;;5118986;27;20193;-71
2023/01/04 02:08:03;;;;;;;11.27;6.80;;;4.50;99.90;;;;;;5115026;28;20212;-70
2023/01/04 02:10:33;;;;;;;13.20;7.20;;;4.50;99.90;;;;;;5115247;28;20209;-70
2023/01/04 02:13:08;;;;;;;11.30;6.63;;;4.50;99.90;;;;;;5115004;28;20261;-70
2023/01/04 02:15:51;;;;;;;10.70;7.17;;;4.40;99.90;;;;;;5115019;28;20271;-70
2023/01/04 02:18:27;;;;;;;12.63;7.13;;;4.40;99.90;;;;;;5115027;28;20226;-70
2023/01/04 02:21:02;;;;;;;13.33;7.37;;;4.40;99.90;;;;;;5114993;28;20209;-70
2023/01/04 02:24:12;;;;;;;18.77;8.13;;;4.40;99.90;;;;;;5114662;28;20199;-70
2023/01/04 02:27:11;;;;;;;14.77;7.40;;;4.40;99.90;;;;;;5114501;28;20261;-70
2023/01/04 02:30:07;;;;;;;15.00;7.80;;;4.50;99.90;;;;;;5114593;28;20234;-70
2023/01/04 02:32:52;;;;;;;13.60;7.60;;;4.50;99.90;;;;;;5113376;28;20213;-70
2023/01/04 02:35:27;;;;;;;15.27;7.93;;;4.40;99.90;;;;;;5114923;28;20659;-70
2023/01/04 02:38:03;;;;;;;16.10;8.13;;;4.30;99.90;;;;;;5114703;28;20206;-70
2023/01/04 02:40:42;;;;;;;17.23;8.40;;;4.30;99.90;;;;;;5114670;28;20192;-70
2023/01/04 02:46:12;;;;;;;11.87;7.70;;;4.20;99.90;;;;;;5113453;28;20235;-71
2023/01/04 02:51:30;;;;;;;13.57;6.97;;;4.20;99.90;;;;;;5135104;27;20195;-70
2023/01/04 02:54:04;;;;;;;13.03;6.70;;;4.20;99.90;;;;;;5134823;27;20194;-70
2023/01/04 02:56:50;;;;;;;14.20;6.77;;;4.20;99.90;;;;;;5134737;27;20196;-70
2023/01/04 02:59:47;;;;;;;14.50;7.23;;;4.20;99.90;;;;;;5116306;27;20211;-71
2023/01/04 03:08:17;;;;;;;14.83;8.33;;;4.10;99.90;;;;;;5134573;27;20198;-70
2023/01/04 03:10:52;;;;;;;12.87;7.10;;;4.00;99.90;;;;;;5134395;27;20205;-71
2023/01/04 03:13:25;;;;;;;13.03;7.13;;;4.10;99.90;;;;;;5134665;27;20204;-70
2023/01/04 03:15:58;;;;;;;16.63;7.20;;;4.10;99.90;;;;;;5134624;27;20219;-70
2023/01/04 03:18:31;;;;;;;12.47;6.67;;;4.10;99.90;;;;;;5134479;27;20607;-71
2023/01/04 03:21:04;;;;;;;16.30;9.40;;;4.00;99.90;;;;;;5134396;27;20559;-70
2023/01/04 03:37:49;;;;;;;14.50;7.50;;;4.10;99.90;;;;;;5133992;27;20196;-72
2023/01/04 03:48:59;;;;;;;15.80;6.43;;;4.00;99.90;;;;;;5133846;27;20217;-71
2023/01/04 03:51:31;;;;;;;10.80;6.87;;;4.10;99.90;;;;;;5133759;27;20559;-70
2023/01/04 03:54:06;;;;;;;16.37;6.23;;;4.10;99.90;;;;;;5133726;27;20199;-71
2023/01/04 03:56:40;;;;;;;10.53;6.10;;;4.10;99.90;;;;;;5133292;27;20205;-70
2023/01/04 03:59:10;;;;;;;12.33;6.17;;;4.20;99.90;;;;;;5133806;27;20639;-70
2023/01/04 04:01:40;;;;;;;11.27;6.80;;;4.20;99.90;;;;;;5133420;27;20209;-72
2023/01/04 04:09:44;;;;;;;8.43;5.13;;;4.20;99.90;;;;;;5128649;27;20221;-71
2023/01/04 04:12:13;;;;;;;11.50;5.77;;;4.10;99.90;;;;;;5121813;27;20565;-71
2023/01/04 04:14:42;;;;;;;10.00;5.77;;;4.20;99.90;;;;;;5112778;28;20196;-70
2023/01/04 04:17:10;;;;;;;11.50;5.47;;;4.20;99.90;;;;;;5112708;28;20261;-71
2023/01/04 04:19:39;;;;;;;9.90;6.13;;;4.30;99.90;;;;;;5112725;28;20247;-70
2023/01/04 04:22:08;;;;;;;13.80;6.97;;;4.40;99.90;;;;;;5112508;28;20190;-70
2023/01/04 04:24:37;;;;;;;13.77;7.03;;;4.30;99.90;;;;;;5112455;28;20250;-70
2023/01/04 04:27:07;;;;;;;13.10;7.73;;;4.40;99.90;;;;;;5112456;28;20287;-70
2023/01/04 04:29:36;;;;;;;11.07;7.47;;;4.40;99.90;;;;;;5112288;28;20221;-70
2023/01/04 04:32:05;;;;;;;13.00;7.47;;;4.40;99.90;;;;;;5112495;28;20225;-70
2023/01/04 04:34:35;;;;;;;10.47;6.83;;;4.40;99.90;;;;;;5112497;28;20251;-69
2023/01/04 04:37:04;;;;;;;10.67;6.40;;;4.30;99.90;;;;;;5112250;28;20544;-70
2023/01/04 04:39:33;;;;;;;10.63;6.87;;;4.30;99.90;;;;;;5112341;28;20658;-70
2023/01/04 04:42:01;;;;;;;9.77;7.07;;;4.30;99.90;;;;;;5112128;28;20208;-70
2023/01/04 04:44:31;;;;;;;10.27;6.50;;;4.30;99.90;;;;;;5112258;28;20209;-70
2023/01/04 04:47:00;;;;;;;13.33;6.50;;;4.30;99.90;;;;;;5116873;27;20601;-71
2023/01/04 04:49:29;;;;;;;14.03;6.67;;;4.30;99.90;;;;;;5144583;27;20208;-70
2023/01/04 04:51:58;;;;;;;9.40;6.33;;;4.30;99.90;;;;;;5112186;28;20210;-70
2023/01/04 04:54:26;;;;;;;11.87;7.00;;;4.20;99.90;;;;;;5112061;28;20338;-70
2023/01/04 04:56:55;;;;;;;12.10;7.63;;;4.30;99.90;;;;;;5112307;28;20652;-70
2023/01/04 04:59:24;;;;;;;15.10;8.30;;;4.30;99.90;;;;;;5112349;28;20233;-70
2023/01/04 05:01:54;;;;;;;13.30;9.27;;;4.30;99.90;;;;;;5112066;28;20262;-70
2023/01/04 05:04:23;;;;;;;14.63;8.60;;;4.40;99.90;;;;;;5112131;28;20247;-70
2023/01/04 05:06:52;;;;;;;13.30;8.50;;;4.30;99.90;;;;;;5112180;28;20234;-69
2023/01/04 05:09:21;;;;;;;17.70;9.07;;;4.40;99.90;;;;;;5115354;28;20193;-71
2023/01/04 05:14:36;;;;;;;11.63;6.97;;;4.50;99.90;;;;;;5116038;28;20194;-70
2023/01/04 05:17:07;;;;;;;12.97;7.70;;;4.50;99.90;;;;;;5116052;28;20194;-72
2023/01/04 05:19:36;;;;;;;11.27;6.80;;;4.50;99.90;;;;;;5115827;28;20241;-69
2023/01/04 05:22:04;;;;;;;10.50;6.70;;;4.50;99.90;;;;;;5115838;28;20202;-70
2023/01/04 05:24:33;;;;;;;11.70;6.00;;;4.50;99.90;;;;;;5115624;28;20686;-71
2023/01/04 05:27:02;;;;;;;12.73;8.57;;;4.60;99.90;;;;;;5115638;28;20300;-70
2023/01/04 05:32:19;;;;;;;8.00;5.67;;;4.50;99.90;;;;;;5116079;28;20228;-71
2023/01/04 05:34:47;;;;;;;8.80;5.40;;;4.40;99.90;;;;;;5115874;28;20194;-73
2023/01/04 05:37:16;;;;;;;9.27;5.70;;;4.10;99.90;;;;;;5115864;28;20195;-72
2023/01/04 05:39:45;;;;;;;7.23;4.80;;;4.00;99.90;;;;;;5115607;28;20227;-69
2023/01/04 05:42:26;;;;;;;9.67;5.40;;;4.00;99.90;;;;;;5115689;28;20727;-69
2023/01/04 05:44:57;;;;;;;10.67;6.47;;;4.10;99.90;;;;;;5115788;28;20664;-69
2023/01/04 05:47:28;;;;;;;7.47;5.13;;;4.10;99.90;;;;;;5153895;27;20568;-70
2023/01/04 05:49:57;;;;;;;9.30;4.77;;;4.10;99.90;;;;;;5156665;27;20226;-69
2023/01/04 05:52:26;;;;;;;9.83;5.47;;;4.10;99.90;;;;;;5156768;27;20192;-69
2023/01/04 05:54:55;;;;;;;6.30;4.73;;;4.20;99.90;;;;;;5156709;27;20720;-69
2023/01/04 05:57:24;;;;;;;8.20;6.63;;;4.10;99.90;;;;;;5156671;27;20198;-70
2023/01/04 05:59:53;;;;;;;6.77;4.50;;;4.20;99.90;;;;;;5156700;27;20204;-69
2023/01/04 06:02:24;;;;;;;8.43;5.23;;;4.20;99.90;;;;;;5156643;27;20345;-70
2023/01/04 06:04:54;;;;;;;7.87;5.30;;;4.10;99.90;;;;;;5154677;27;20199;-69
2023/01/04 06:07:27;;;;;;;6.97;4.93;;;4.20;99.90;;;;;;5156444;27;20201;-69
2023/01/04 06:09:55;;;;;;;6.33;4.73;;;4.20;99.90;;;;;;5156390;27;20238;-69
2023/01/04 06:12:24;;;;;;;8.03;4.97;;;4.10;99.90;;;;;;5133550;27;20221;-69
2023/01/04 06:14:53;;;;;;;6.40;5.40;;;4.20;99.90;;;;;;5118530;27;20667;-70
2023/01/04 06:17:22;;;;;;;8.87;5.77;;;4.20;99.90;;;;;;5146462;27;20205;-69
2023/01/04 06:19:51;;;;;;;9.80;5.67;;;4.10;99.90;;;;;;5155873;27;20615;-69
2023/01/04 06:22:22;;;;;;;10.40;5.67;;;4.20;99.90;;;;;;5147080;27;20228;-69
2023/01/04 06:24:50;;;;;;;10.97;5.87;;;4.30;99.90;;;;;;5125998;27;20582;-70
2023/01/04 06:27:19;;;;;;;13.70;6.17;;;4.30;99.90;;;;;;5135401;27;20196;-71
2023/01/04 06:29:48;;;;;;;11.27;6.07;;;4.40;99.90;;;;;;5135255;27;20228;-70
2023/01/04 06:32:17;;;;;;;12.10;6.30;;;4.20;99.90;;;;;;5135086;27;20571;-69
2023/01/04 06:34:46;;;;;;;10.03;6.53;;;4.30;99.90;;;;;;5135230;27;20196;-71
2023/01/04 06:37:15;;;;;;;12.37;5.70;;;4.40;99.90;;;;;;5135150;27;20196;-71
2023/01/04 06:39:45;;;;;;;11.60;6.27;;;4.30;99.90;;;;;;5135207;27;20316;-71
2023/01/04 06:44:57;;;;;;;10.93;6.67;;;4.30;99.90;;;;;;5134302;27;20199;-71
2023/01/04 06:47:26;;;;;;;11.17;6.63;;;4.30;99.90;;;;;;5151071;27;20283;-71
2023/01/04 06:49:55;;;;;;;11.93;6.63;;;4.20;99.90;;;;;;5155722;27;20210;-70
2023/01/04 06:52:23;;;;;;;12.70;8.33;;;4.20;99.90;;;;;;5155569;27;20729;-70
2023/01/04 06:54:54;;;;;;;10.80;6.33;;;4.30;99.90;;;;;;5155553;27;20200;-70
2023/01/04 06:57:23;;;;;;;11.07;6.33;;;4.30;99.90;;;;;;5155582;27;20692;-70
2023/01/04 06:59:52;;;;;;;14.47;8.30;;;4.30;99.90;;;;;;5155510;27;20249;-69
2023/01/04 07:02:20;;;;;;;11.17;7.33;;;4.00;99.90;;;;;;5150433;27;20200;-71
2023/01/04 07:04:49;;;;;;;10.90;7.70;;;4.00;99.90;;;;;;5155481;27;20573;-70
2023/01/04 07:07:18;;;;;;;11.90;7.43;;;4.10;99.90;;;;;;5155370;27;20776;-70
2023/01/04 07:09:47;;;;;;;11.13;7.43;;;4.00;99.90;;;;;;5154495;27;20813;-71
2023/01/04 07:12:18;;;;;;;11.50;7.93;;;4.10;99.90;;;;;;5154175;27;20218;-70
2023/01/04 07:14:46;;;;;;;14.97;8.20;;;4.20;99.90;;;;;;5154332;27;20191;-69
2023/01/04 07:17:15;;;;;;;14.40;8.33;;;4.20;99.90;;;;;;5154256;27;20272;-69
2023/01/04 07:19:44;;;;;;;18.73;8.77;;;4.20;99.90;;;;;;5154137;27;20268;-70
2023/01/04 07:22:13;;;;;;;22.80;11.17;;;4.30;99.90;;;;;;5141302;27;20244;-72
2023/01/04 07:24:43;;;;;;;14.87;9.33;;;4.40;99.90;;;;;;5127599;27;20247;-70
2023/01/04 07:27:12;;;;;;;17.13;8.80;;;4.50;99.90;;;;;;5119464;27;20230;-72
2023/01/04 07:29:43;;;;;;;12.47;8.17;;;4.50;99.90;;;;;;5112598;27;20198;-69
2023/01/04 07:32:12;;;;;;;13.17;8.90;;;4.30;99.90;;;;;;5122904;27;20762;-70
2023/01/04 07:34:42;;;;;;;33.27;18.13;;;4.30;99.90;;;;;;5113997;28;20212;-69
2023/01/04 07:37:11;;;;;;;18.37;10.23;;;4.40;99.90;;;;;;5105311;27;20246;-70
2023/01/04 07:39:40;;;;;;;13.60;8.03;;;4.30;99.90;;;;;;5116922;27;20201;-69
2023/01/04 07:42:09;;;;;;;16.10;9.10;;;4.40;99.90;;;;;;5113723;28;20193;-69
2023/01/04 07:44:38;;;;;;;15.27;8.40;;;4.20;99.90;;;;;;5113070;28;20249;-70
2023/01/04 07:47:09;;;;;;;12.23;8.30;;;4.20;99.90;;;;;;5113456;28;20222;-69
2023/01/04 07:49:37;;;;;;;16.93;8.67;;;4.20;99.90;;;;;;5113470;28;20726;-69
2023/01/04 07:52:06;;;;;;;18.33;10.37;;;4.20;99.90;;;;;;5123242;27;20269;-69
2023/01/04 07:54:35;;;;;;;13.63;8.47;;;4.20;99.90;;;;;;5134008;27;20197;-71
2023/01/04 07:57:04;;;;;;;16.30;9.40;;;4.30;99.90;;;;;;5134008;27;20223;-70
2023/01/04 07:59:33;;;;;;;16.13;8.20;;;4.30;99.90;;;;;;5133421;27;20720;-69
2023/01/04 08:02:02;;;;;;;16.17;10.20;;;4.30;99.90;;;;;;5133926;27;20246;-69
2023/01/04 08:04:32;;;;;;;16.03;9.43;;;4.30;99.90;;;;;;5133793;27;20206;-69
2023/01/04 08:07:03;;;;;;;22.60;12.53;;;4.40;99.90;;;;;;5133829;27;20198;-69
2023/01/04 08:09:32;;;;;;;18.80;10.33;;;4.40;99.90;;;;;;5126888;27;20194;-68
2023/01/04 08:12:01;;;;;;;21.67;11.70;;;4.50;99.90;;;;;;5120391;27;20711;-70
2023/01/04 08:14:30;;;;;;;17.83;10.37;;;4.50;99.90;;;;;;5123831;27;20195;-70
2023/01/04 08:16:59;;;;;;;14.50;10.17;;;4.60;99.90;;;;;;5125078;27;20204;-71
2023/01/04 08:19:28;;;;;;;18.80;10.40;;;4.70;99.90;;;;;;5133416;27;20244;-71
2023/01/04 08:21:58;;;;;;;14.40;9.87;;;4.70;99.90;;;;;;5134888;27;20197;-69
2023/01/04 08:24:27;;;;;;;15.60;9.50;;;4.60;99.90;;;;;;5133380;27;20202;-70
2023/01/04 08:26:56;;;;;;;14.90;11.10;;;4.60;99.90;;;;;;5127253;27;20571;-70
2023/01/04 08:29:25;;;;;;;16.67;9.83;;;4.80;99.90;;;;;;5118815;27;20230;-70
2023/01/04 08:32:00;;;;;;;13.93;10.27;;;4.70;99.90;;;;;;5135032;27;20218;-69
2023/01/04 08:34:29;;;;;;;15.43;9.73;;;4.80;99.90;;;;;;5125238;27;20208;-70
2023/01/04 08:37:00;;;;;;;15.27;9.53;;;4.80;99.90;;;;;;5112889;28;20208;-72
2023/01/04 08:39:32;;;;;;;14.43;10.40;;;4.70;99.90;;;;;;5112456;28;20228;-70
2023/01/04 08:42:01;;;;;;;12.30;9.13;;;4.70;99.90;;;;;;5111768;28;20195;-70
2023/01/04 08:44:42;;;;;;;15.83;10.63;;;4.80;99.90;;;;;;5112456;28;20627;-69
2023/01/04 08:47:11;;;;;;;18.07;11.00;;;4.70;99.90;;;;;;5112567;28;20655;-70
2023/01/04 08:49:40;;;;;;;21.33;11.33;;;4.70;99.90;;;;;;5112550;28;20627;-70
2023/01/04 08:52:10;;;;;;;17.60;10.73;;;4.70;99.90;;;;;;5122735;27;20290;-70
2023/01/04 08:54:39;;;;;;;14.57;11.60;;;4.70;99.90;;;;;;5112288;28;20252;-70
2023/01/04 08:57:08;;;;;;;14.20;10.27;;;4.70;99.90;;;;;;5111931;28;20201;-70
2023/01/04 08:59:37;;;;;;;17.63;10.70;;;4.70;99.90;;;;;;5112564;28;20594;-69
2023/01/04 09:02:18;;;;;;;13.87;10.00;;;4.60;99.90;;;;;;5112453;28;20194;-70
2023/01/04 09:04:48;;;;;;;14.37;9.50;;;4.50;99.90;;;;;;5112479;28;20248;-71
2023/01/04 09:07:18;;;;;;;14.13;10.60;;;4.60;99.90;;;;;;5112276;28;20281;-70
2023/01/04 09:09:47;;;;;;;13.87;9.47;;;4.60;99.90;;;;;;5112149;28;20262;-71
2023/01/04 09:12:16;;;;;;;12.97;9.87;;;4.60;99.90;;;;;;5111792;28;20298;-71
2023/01/04 09:14:45;;;;;;;13.47;9.33;;;4.80;99.90;;;;;;5112422;28;20228;-70
2023/01/04 09:17:14;;;;;;;15.83;9.97;;;4.90;99.90;;;;;;5112316;28;20199;-70
2023/01/04 09:19:43;;;;;;;13.70;9.60;;;4.80;99.90;;;;;;5112475;28;20212;-70
2023/01/04 09:22:12;;;;;;;14.57;10.57;;;4.70;99.90;;;;;;5122578;28;20224;-71
2023/01/04 09:24:42;;;;;;;16.23;10.90;;;4.80;99.90;;;;;;5131332;28;20205;-71
2023/01/04 09:27:11;;;;;;;19.00;10.47;;;4.80;99.90;;;;;;5093253;27;20283;-70
2023/01/04 09:29:40;;;;;;;19.23;10.40;;;4.80;99.90;;;;;;5118819;28;20258;-70
2023/01/04 09:32:09;;;;;;;17.30;10.73;;;4.70;99.90;;;;;;5116800;28;20226;-70
2023/01/04 09:34:44;;;;;;;13.27;9.07;;;4.70;99.90;;;;;;5009514;28;20213;-71
2023/01/04 09:37:13;;;;;;;12.83;10.27;;;4.70;99.90;;;;;;5009638;28;20295;-70
2023/01/04 09:39:44;;;;;;;17.47;10.47;;;4.70;99.90;;;;;;5009329;28;20205;-70
2023/01/04 09:42:20;;;;;;;19.53;11.20;;;4.80;99.90;;;;;;5009269;28;20206;-70
2023/01/04 09:44:52;;;;;;;17.20;11.10;;;4.80;99.90;;;;;;5009798;28;20205;-71
2023/01/04 09:47:45;;;;;;;15.93;10.17;;;4.70;99.90;;;;;;5009621;28;20248;-70
2023/01/04 09:50:18;;;;;;;17.47;11.37;;;4.80;99.90;;;;;;5026420;28;20564;-70
2023/01/04 09:52:56;;;;;;;21.43;10.73;;;4.80;99.90;;;;;;5079785;28;20324;-70
2023/01/04 09:55:32;;;;;;;18.43;11.57;;;4.90;99.90;;;;;;5114395;28;20197;-70
2023/01/04 09:58:14;;;;;;;22.03;12.77;;;4.90;99.90;;;;;;5115881;28;20194;-70
2023/01/04 10:00:46;;;;;;;16.03;11.33;;;5.00;99.90;;;;;;5133596;27;20666;-70
2023/01/04 10:03:19;;;;;;;14.07;11.57;;;5.00;99.90;;;;;;5146831;27;20221;-70
2023/01/04 10:05:48;;;;;;;19.53;11.63;;;5.10;99.90;;;;;;5124636;27;20291;-70
2023/01/04 10:08:19;;;;;;;16.00;11.43;;;5.20;99.90;;;;;;5115935;28;20190;-70
2023/01/04 10:10:59;;;;;;;16.47;10.23;;;5.30;99.90;;;;;;5114957;28;20252;-69
2023/01/04 10:13:43;;;;;;;17.57;11.37;;;5.30;99.90;;;;;;5115016;28;20217;-70
2023/01/04 10:16:21;;;;;;;15.70;11.40;;;5.30;99.90;;;;;;5115018;28;20666;-70
2023/01/04 10:19:27;;;;;;;15.77;11.13;;;5.20;99.90;;;;;;5114832;28;20196;-69
2023/01/04 10:22:23;;;;;;;16.23;11.73;;;5.30;99.90;;;;;;5125193;27;20292;-69
2023/01/04 10:25:00;;;;;;;15.20;11.30;;;5.30;99.90;;;;;;5135458;27;20647;-70
2023/01/04 10:27:45;;;;;;;15.37;11.00;;;5.20;99.90;;;;;;5135260;27;20573;-71
2023/01/04 10:30:30;;;;;;;15.93;11.70;;;5.30;99.90;;;;;;5135272;27;20229;-69
2023/01/04 10:33:09;;;;;;;19.27;11.30;;;5.40;99.90;;;;;;5134969;27;20220;-69
2023/01/04 10:35:42;;;;;;;19.30;11.57;;;5.40;99.90;;;;;;5135180;27;20189;-70
2023/01/04 10:38:18;;;;;;;18.10;11.93;;;5.40;99.90;;;;;;5135106;27;20231;-68
2023/01/04 10:40:49;;;;;;;17.80;12.90;;;5.40;99.90;;;;;;5134945;27;20283;-69
2023/01/04 10:43:29;;;;;;;17.57;12.23;;;5.40;99.90;;;;;;5134903;27;20190;-70
2023/01/04 10:46:05;;;;;;;20.87;13.27;;;5.40;99.90;;;;;;5135026;27;20229;-68
2023/01/04 10:48:40;;;;;;;16.23;11.87;;;5.60;99.90;;;;;;5134854;27;20197;-69
2023/01/04 10:51:10;;;;;;;18.90;12.27;;;5.50;99.90;;;;;;5134542;27;20284;-70
2023/01/04 10:53:44;;;;;;;18.33;11.77;;;5.70;99.90;;;;;;5132489;27;20634;-71
2023/01/04 10:56:20;;;;;;;14.87;11.63;;;5.80;99.90;;;;;;5125141;27;20191;-69
2023/01/04 10:58:57;;;;;;;23.90;12.57;;;5.80;99.90;;;;;;5125491;27;20729;-71
2023/01/04 11:01:31;;;;;;;18.53;11.47;;;5.80;99.90;;;;;;5114163;28;20246;-70
2023/01/04 11:04:06;;;;;;;18.63;11.73;;;5.70;99.90;;;;;;5120051;27;20674;-69
2023/01/04 11:06:41;;;;;;;18.00;13.10;;;5.70;99.90;;;;;;5134367;27;20206;-71
2023/01/04 11:09:16;;;;;;;35.60;20.70;;;5.70;99.90;;;;;;5133616;27;20200;-69
2023/01/04 11:11:55;;;;;;;16.60;12.67;;;5.80;99.90;;;;;;5124285;27;20200;-70
2023/01/04 11:14:26;;;;;;;16.17;12.10;;;5.80;99.90;;;;;;5139174;27;20239;-70
2023/01/04 11:17:04;;;;;;;22.17;12.40;;;5.70;99.90;;;;;;5144885;27;20287;-70
2023/01/04 11:19:34;;;;;;;18.50;13.27;;;5.80;99.90;;;;;;5139746;27;20660;-70
2023/01/04 11:22:10;;;;;;;15.77;12.67;;;5.80;99.90;;;;;;5132075;27;20294;-70
2023/01/04 11:24:42;;;;;;;17.77;12.80;;;5.70;99.90;;;;;;5133635;27;20222;-69
2023/01/04 11:27:31;;;;;;;21.17;15.30;;;5.60;99.90;;;;;;5133809;27;20253;-70
2023/01/04 11:30:05;;;;;;;21.77;15.03;;;5.60;99.90;;;;;;5133736;27;20243;-71
2023/01/04 11:32:40;;;;;;;20.40;14.33;;;5.50;99.90;;;;;;5133485;27;20559;-70
2023/01/04 11:35:09;;;;;;;18.90;13.30;;;5.70;99.90;;;;;;5133879;27;20232;-70
2023/01/04 11:37:39;;;;;;;20.87;13.37;;;5.60;99.90;;;;;;5134032;27;20196;-69
2023/01/04 11:40:17;;;;;;;22.47;14.70;;;5.50;99.90;;;;;;5133883;27;20197;-70
2023/01/04 11:42:48;;;;;;;21.97;15.23;;;5.40;99.90;;;;;;5133635;27;20199;-69
2023/01/04 11:45:22;;;;;;;21.97;15.83;;;5.30;99.90;;;;;;5131752;27;20293;-70
2023/01/04 11:47:53;;;;;;;25.13;17.67;;;5.30;99.90;;;;;;5134083;27;20195;-69
2023/01/04 11:50:38;;;;;;;30.23;18.80;;;5.20;99.90;;;;;;5131376;27;20198;-70
2023/01/04 11:53:24;;;;;;;25.13;17.43;;;5.10;99.90;;;;;;5130671;27;20571;-69
2023/01/04 11:56:18;;;;;;;29.37;17.67;;;5.00;99.90;;;;;;5134163;27;20199;-69
2023/01/04 11:59:14;;;;;;;30.93;20.43;;;4.90;99.90;;;;;;5133750;27;20690;-69
2023/01/04 12:02:10;;;;;;;31.03;20.80;;;4.90;99.90;;;;;;5133550;27;20207;-70
2023/01/04 12:04:39;;;;;;;38.00;21.57;;;5.00;99.90;;;;;;5132462;27;20258;-70
2023/01/04 12:07:22;;;;;;;30.13;19.40;;;5.10;99.90;;;;;;5133382;27;20197;-69
2023/01/04 12:10:00;;;;;;;33.53;22.07;;;5.00;99.90;;;;;;5133529;27;20710;-70
2023/01/04 12:12:42;;;;;;;28.10;18.00;;;5.10;99.90;;;;;;5132942;27;20205;-70
2023/01/04 12:15:18;;;;;;;33.37;21.20;;;5.00;99.90;;;;;;5133052;27;20216;-70
2023/01/04 12:17:53;;;;;;;28.50;18.40;;;5.00;99.90;;;;;;5133112;27;20194;-70
2023/01/04 12:20:27;;;;;;;33.13;21.43;;;5.00;99.90;;;;;;5138576;27;20220;-73
2023/01/04 12:22:56;;;;;;;33.63;19.73;;;5.00;99.90;;;;;;5149728;27;20309;-70
2023/01/04 12:25:33;;;;;;;30.70;20.67;;;5.00;99.90;;;;;;5124913;27;20747;-72
2023/01/04 12:28:02;;;;;;;31.77;19.53;;;5.10;99.90;;;;;;5117934;27;20206;-70
2023/01/04 12:30:36;;;;;;;33.13;21.67;;;5.20;99.90;;;;;;5112902;28;20202;-71
2023/01/04 12:33:40;;;;;;;27.70;19.47;;;5.10;99.90;;;;;;5113087;28;20282;-69
2023/01/04 12:36:10;;;;;;;35.60;20.73;;;4.90;99.90;;;;;;5127430;27;20201;-69
2023/01/04 12:39:42;;;;;;;34.57;19.97;;;4.80;99.90;;;;;;5132925;27;20202;-69
2023/01/04 12:42:23;;;;;;;30.73;20.27;;;4.80;99.90;;;;;;4990305;28;20233;-70
2023/01/04 12:45:20;;;;;;;29.07;20.40;;;4.80;99.90;;;;;;4990615;28;20252;-69
2023/01/04 12:51:20;;;;;;;30.37;20.50;;;4.90;99.90;;;;;;4990627;28;20717;-69
2023/01/04 12:54:30;;;;;;;35.17;21.87;;;4.80;99.90;;;;;;4989944;28;20258;-69
2023/01/04 12:57:24;;;;;;;29.40;20.37;;;4.90;99.90;;;;;;4973695;28;20648;-70
2023/01/04 12:59:56;;;;;;;29.73;19.27;;;4.90;99.90;;;;;;4990601;28;20261;-70
2023/01/04 13:02:26;;;;;;;28.87;18.60;;;4.90;99.90;;;;;;4978824;28;20208;-70
2023/01/04 13:04:58;;;;;;;29.10;19.27;;;4.90;99.90;;;;;;4975276;28;20225;-70
2023/01/04 13:07:49;;;;;;;36.33;22.17;;;5.00;99.90;;;;;;4990055;28;20297;-70
2023/01/04 13:10:33;;;;;;;29.37;18.53;;;5.00;99.90;;;;;;4990479;28;20215;-70
2023/01/04 13:13:25;;;;;;;25.10;18.50;;;5.00;99.90;;;;;;5029616;28;20230;-69
2023/01/04 13:16:15;;;;;;;22.87;16.37;;;5.10;99.90;;;;;;5051107;28;20665;-69
2023/01/04 13:18:49;;;;;;;24.83;17.03;;;5.20;99.90;;;;;;5112373;28;20201;-69
2023/01/04 13:21:24;;;;;;;24.20;17.23;;;5.20;99.90;;;;;;5123566;27;20223;-70
2023/01/04 13:23:55;;;;;;;23.50;16.60;;;5.20;99.90;;;;;;5117105;28;20203;-71
2023/01/04 13:26:37;;;;;;;23.80;18.23;;;5.20;99.90;;;;;;5132781;28;20225;-70
2023/01/04 13:29:09;;;;;;;28.53;18.67;;;5.20;99.90;;;;;;5136166;27;20599;-69
2023/01/04 13:31:48;;;;;;;24.17;15.77;;;5.30;99.90;;;;;;5157750;27;20585;-70
2023/01/04 13:34:23;;;;;;;27.07;17.37;;;5.30;99.90;;;;;;5157081;27;20217;-70
2023/01/04 13:37:16;;;;;;;21.80;15.27;;;5.30;99.90;;;;;;5157485;27;20204;-70
2023/01/04 13:39:47;;;;;;;23.37;16.37;;;5.30;99.90;;;;;;5157254;27;20198;-70
2023/01/04 13:42:23;;;;;;;21.43;15.97;;;5.40;99.90;;;;;;5156914;27;20199;-71
2023/01/04 13:45:30;;;;;;;20.93;15.80;;;5.50;99.90;;;;;;5157190;27;20204;-70
2023/01/04 13:48:01;;;;;;;24.30;16.33;;;5.40;99.90;;;;;;5052781;28;20292;-71
2023/01/04 13:50:34;;;;;;;20.87;15.23;;;5.30;99.90;;;;;;5052865;28;20212;-71
2023/01/04 13:53:04;;;;;;;22.17;16.17;;;5.30;99.90;;;;;;5052830;28;20211;-71
2023/01/04 13:55:37;;;;;;;24.17;16.90;;;5.30;99.90;;;;;;5035851;28;20240;-71
2023/01/04 13:58:17;;;;;;;22.20;16.77;;;5.40;99.90;;;;;;5052610;28;20215;-71
2023/01/04 14:00:50;;;;;;;22.80;16.77;;;5.40;99.90;;;;;;5052761;28;20214;-72
2023/01/04 14:03:29;;;;;;;18.67;13.90;;;5.40;99.90;;;;;;5036102;28;20191;-71
2023/01/04 14:06:12;;;;;;;24.83;16.90;;;5.40;99.90;;;;;;5012261;28;20234;-71